Weather reports worldwide

Advertisment
La Molina, Spain (8117): temperature & dewpoint: 20.10.2020 22:00:00 - 26.10.2020 22:00:00 (CET)La Molina, Spain (8117): wind speed & gusts: 20.10.2020 22:00:00 - 26.10.2020 22:00:00 (CET)La Molina, Spain (8117): wind direction: 20.10.2020 22:00:00 - 26.10.2020 22:00:00 (CET)La Molina, Spain (8117): visibility: 20.10.2020 22:00:00 - 26.10.2020 22:00:00 (CET)La Molina, Spain (8117): sunshine duration: 20.10.2020 22:00:00 - 26.10.2020 22:00:00 (CET)La Molina, Spain (8117): precipitation: 20.10.2020 22:00:00 - 26.10.2020 22:00:00 (CET)
Date & Time tt [°C] td [°C] ff [km/h] ff [kn] fx [km/h] fx [kn] dd vv [km] sd [min] rr [mm]
26.10.2020 22:00:00 - - - - - - - - - -
26.10.2020 21:00:00 -0,6 -2,7 4 2 10 5 SSW 20 0 0,0
26.10.2020 20:00:00 -0,2 -2,5 5 3 9 5 SSW 20 0 0,0
26.10.2020 19:00:00 0,4 -2,2 6 3 11 6 SW 20 0 -
26.10.2020 18:00:00 1,3 -1,7 6 4 12 7 S 20 0 0,0
26.10.2020 17:00:00 2,9 -1,2 4 2 12 6 S 20 9 0,0
26.10.2020 16:00:00 5,1 -1,0 3 2 19 10 SW 20 37 0,0
26.10.2020 15:00:00 5,3 -2,0 10 6 23 13 NW 20 50 0,0
26.10.2020 14:00:00 5,4 0,0 11 6 26 14 WNW 20 48 0,0
26.10.2020 13:00:00 3,9 0,0 12 6 21 11 WNW 20 26 -
26.10.2020 12:00:00 3,8 0,0 5 3 16 9 NNW 20 4 0,0
26.10.2020 11:00:00 3,3 -0,7 6 3 16 8 WNW 20 6 0,0
26.10.2020 10:00:00 1,7 -0,5 5 3 16 9 SSW 20 4 0,8
26.10.2020 09:00:00 1,5 0,0 5 3 29 16 W 1,8 0 0,0
26.10.2020 08:00:00 2,1 0,9 9 5 16 9 W 8 0 0,0
26.10.2020 07:00:00 2,0 1,5 4 2 11 6 ESE 20 0 -
26.10.2020 06:00:00 2,3 2,1 4 2 13 7 ENE 4,6 0 0,0
26.10.2020 05:00:00 4,2 1,3 8 5 25 14 S 20 0 0,0
26.10.2020 04:00:00 4,8 1,3 4 2 36 19 W 20 0 0,0
26.10.2020 03:00:00 3,6 2,3 11 6 30 16 W 20 0 1,2
26.10.2020 02:00:00 4,7 3,6 21 11 45 24 WNW 3,0 0 1,8
26.10.2020 01:00:00 6,3 4,8 12 7 33 18 S 3,4 0 -
26.10.2020 00:00:00 7,1 4,6 10 5 28 15 S 16 0 0,0
25.10.2020 23:00:00 7,3 4,8 14 8 33 18 S 20 0 0,0
25.10.2020 22:00:00 5,3 4,1 6 3 16 9 E 20 0 0,0
25.10.2020 21:00:00 5,4 4,1 7 4 14 8 E 20 0 0,0
25.10.2020 20:00:00 6,3 4,1 9 5 23 12 NNE 20 0 0,0
25.10.2020 19:00:00 6,9 4,4 6 3 23 12 NE 20 0 -
25.10.2020 18:00:00 8,4 4,3 11 6 40 21 W 20 0 0,0
25.10.2020 17:00:00 9,1 3,7 12 6 37 20 W 20 33 0,0
25.10.2020 16:00:00 10,0 3,2 6 3 35 19 NE 20 56 0,0
25.10.2020 15:00:00 12,2 3,6 12 6 38 21 NNW 20 60 0,0
25.10.2020 14:00:00 11,0 4,3 6 4 16 9 NE 17 60 0,0
25.10.2020 13:00:00 10,5 3,2 6 3 20 11 N 5 60 -
25.10.2020 12:00:00 9,0 3,0 8 4 44 24 NNW 1,6 60 0,0
25.10.2020 11:00:00 10,5 -2,0 16 9 49 26 WSW 20 60 0,0
25.10.2020 10:00:00 9,0 -2,2 18 10 46 25 WSW 2,0 49 0,0
25.10.2020 09:00:00 5,3 1,5 10 5 22 12 NW 20 0 0,0
25.10.2020 08:00:00 4,0 1,5 7 4 32 18 N 20 0 0,0
25.10.2020 07:00:00 7,4 -0,3 18 10 39 21 W 20 0 -
25.10.2020 06:00:00 3,4 1,7 4 2 42 23 N 20 0 0,0
25.10.2020 05:00:00 6,4 1,3 16 9 36 19 WNW 20 0 0,0
25.10.2020 04:00:00 2,4 1,9 5 3 12 7 E 20 0 0,0
25.10.2020 03:00:00 2,6 2,3 5 3 11 6 ENE 20 0 0,0
25.10.2020 02:00:00 2,9 2,1 5 3 14 8 E 20 0 0,0
25.10.2020 01:00:00 - - - - - - - - - -
25.10.2020 00:00:00 3,5 2,9 4 2 17 9 ENE 20 0 0,0
24.10.2020 23:00:00 4,0 3,0 4 2 10 5 E 20 0 0,0
24.10.2020 22:00:00 4,2 3,2 7 4 14 8 E 20 0 0,0
24.10.2020 21:00:00 4,2 3,2 6 3 10 6 E 20 0 0,0
24.10.2020 20:00:00 4,7 2,9 5 3 11 6 ESE 20 0 0,0
24.10.2020 19:00:00 5,3 3,0 8 4 11 6 ESE 20 0 -
24.10.2020 18:00:00 6,6 3,6 5 3 10 5 E 20 0 0,0
24.10.2020 17:00:00 8,7 4,3 5 3 10 6 ESE 20 35 0,0
24.10.2020 16:00:00 11,4 5,0 6 4 9 5 NNW 20 60 0,0
24.10.2020 15:00:00 11,3 4,1 6 3 12 6 NNW 20 60 0,0
24.10.2020 14:00:00 11,3 3,8 3 2 11 6 NW 19 60 0,0
24.10.2020 13:00:00 - - - - - - - - - -
24.10.2020 12:00:00 9,2 3,8 6 3 11 6 NNW 20 60 0,0
24.10.2020 11:00:00 8,6 3,8 3 2 6 4 S 20 53 0,0
24.10.2020 10:00:00 6,1 3,6 3 2 10 6 SSE 20 58 0,0
24.10.2020 09:00:00 2,3 1,5 5 3 9 5 ESE 20 1 0,0
24.10.2020 08:00:00 1,6 1,3 5 3 9 5 SE 20 0 0,0
24.10.2020 07:00:00 1,4 0,6 5 3 10 5 ESE 20 0 -
24.10.2020 06:00:00 1,6 0,9 7 4 9 5 ESE 20 0 0,0
24.10.2020 05:00:00 1,7 0,9 5 3 10 5 ESE 20 0 0,0
24.10.2020 04:00:00 2,1 0,9 6 3 10 5 ESE 20 0 0,0
24.10.2020 03:00:00 2,1 1,3 5 3 9 5 S 20 0 0,0
24.10.2020 02:00:00 2,9 1,5 5 3 8 5 ESE 20 0 0,0
24.10.2020 01:00:00 3,7 2,9 5 3 9 5 SE 20 0 -
24.10.2020 00:00:00 3,3 2,7 4 2 12 6 S 20 0 0,0
23.10.2020 23:00:00 3,3 2,5 3 2 9 5 S 19 0 0,0
23.10.2020 22:00:00 4,6 3,0 6 3 11 6 S 20 0 0,0
23.10.2020 21:00:00 4,2 2,7 2 1 18 10 ENE 20 0 0,0
23.10.2020 20:00:00 4,5 2,9 6 3 13 7 ESE 20 0 0,0
23.10.2020 19:00:00 5,4 2,7 8 4 25 13 ESE 20 0 -
23.10.2020 18:00:00 6,0 2,3 5 3 13 7 SW 20 0 0,0
23.10.2020 17:00:00 7,9 4,7 4 2 11 6 SSE 20 16 0,0
23.10.2020 16:00:00 9,4 3,6 8 4 18 10 NW 20 19 0,0
23.10.2020 15:00:00 11,9 3,4 8 4 21 11 W 20 60 0,0
23.10.2020 14:00:00 11,3 4,5 8 4 20 11 WNW 20 54 0,0
23.10.2020 13:00:00 10,1 7,0 5 3 19 10 N 20 28 -
23.10.2020 12:00:00 10,4 7,3 6 4 20 11 NNE 20 57 0,0
23.10.2020 11:00:00 10,4 6,7 7 4 13 7 NNE 20 53 0,0
23.10.2020 10:00:00 9,1 7,3 6 3 20 11 ENE 20 56 0,0
23.10.2020 09:00:00 6,9 4,8 6 4 16 9 WNW 20 5 0,0
23.10.2020 08:00:00 6,2 6,1 5 3 12 7 E 20 0 0,0
23.10.2020 07:00:00 6,6 6,2 3 2 11 6 ESE 20 0 -
23.10.2020 06:00:00 7,3 7,1 5 3 14 8 ESE 20 0 0,2
23.10.2020 05:00:00 7,8 7,8 4 2 13 7 E 5 0 0,2
23.10.2020 04:00:00 7,7 7,7 3 2 9 5 NNE 1,9 0 0,4
23.10.2020 03:00:00 7,7 7,6 4 2 21 11 W 0,6 0 0,4
23.10.2020 02:00:00 8,0 7,7 4 2 29 15 WSW 4,8 0 0,4
23.10.2020 01:00:00 8,6 7,4 10 6 34 19 SSW 13 0 -
23.10.2020 00:00:00 8,5 7,1 12 7 29 16 SSW 20 0 0,8
22.10.2020 23:00:00 8,4 7,6 4 2 21 11 N 2,3 0 2,2
22.10.2020 22:00:00 7,9 7,6 5 3 15 8 NW 2,4 0 4,4
22.10.2020 21:00:00 8,2 7,1 6 4 20 11 ESE 2,9 0 4,2
22.10.2020 20:00:00 8,4 7,0 11 6 30 16 E 4,8 0 3,0
22.10.2020 19:00:00 8,0 6,1 8 5 26 14 E 3,8 0 -
22.10.2020 18:00:00 7,9 5,0 5 3 20 11 E 8 0 1,6
22.10.2020 17:00:00 8,8 4,6 10 6 21 12 SSW 10 0 0,6
22.10.2020 16:00:00 9,5 5,0 7 4 27 15 SW 9 0 0,4
22.10.2020 15:00:00 9,4 4,6 9 5 38 21 SSE 6 0 1,2
22.10.2020 14:00:00 11,1 4,1 10 5 42 23 E 12 0 0,0
22.10.2020 13:00:00 11,0 3,8 8 4 25 13 ESE 16 0 -
22.10.2020 12:00:00 10,2 4,5 6 3 21 12 SW 16 0 0,0
22.10.2020 11:00:00 10,4 6,8 6 3 23 12 S 19 0 0,0
22.10.2020 10:00:00 9,2 6,2 5 3 25 13 SW 15 0 1,0
22.10.2020 09:00:00 8,6 6,4 8 4 33 18 E 3,7 0 2,2
22.10.2020 08:00:00 8,9 6,5 6 3 16 8 S 16 0 0,2
22.10.2020 07:00:00 8,1 6,8 4 2 21 11 ENE 18 0 -
22.10.2020 06:00:00 9,2 6,4 9 5 22 12 S 7 0 0,6
22.10.2020 05:00:00 9,0 6,2 8 5 25 13 SE 20 0 0,8
22.10.2020 04:00:00 10,3 6,2 9 5 29 16 SE 5 0 0,4
22.10.2020 03:00:00 11,8 3,8 7 4 42 23 SSW 20 0 0,0
22.10.2020 02:00:00 10,9 4,1 8 5 38 21 SE 20 0 0,0
22.10.2020 01:00:00 10,7 5,6 16 8 39 21 WSW 20 0 -
22.10.2020 00:00:00 10,4 5,6 11 6 32 18 SW 20 0 0,0
21.10.2020 23:00:00 10,4 4,8 12 6 26 14 SW 20 0 0,0
21.10.2020 22:00:00 10,4 5,6 14 8 37 20 SSE 20 0 0,0
21.10.2020 21:00:00 10,5 5,6 14 8 31 17 SSE 20 0 0,0
21.10.2020 20:00:00 10,7 5,6 9 5 29 16 WSW 20 0 0,0
21.10.2020 19:00:00 10,8 7,3 10 6 37 20 E 20 0 -
21.10.2020 18:00:00 10,7 7,1 3 2 26 14 NE 20 0 0,0
21.10.2020 17:00:00 11,3 6,8 11 6 27 15 E 20 3 0,0
21.10.2020 16:00:00 13,1 5,8 8 4 40 21 ESE 20 42 0,0
21.10.2020 15:00:00 14,4 6,2 8 4 33 18 ESE 20 56 0,0
21.10.2020 14:00:00 13,6 8,3 15 8 36 20 ESE 15 55 0,0
21.10.2020 13:00:00 12,5 7,8 12 6 35 19 E 12 45 -
21.10.2020 12:00:00 11,6 7,0 13 7 29 16 E 12 16 0,0
21.10.2020 11:00:00 10,5 6,7 11 6 40 22 ESE 13 0 0,0
21.10.2020 10:00:00 9,8 7,3 13 7 48 26 ESE 13 0 0,0
21.10.2020 09:00:00 10,2 5,9 14 8 61 33 E 11 0 0,0
21.10.2020 08:00:00 9,7 6,5 24 13 50 27 ESE 12 0 0,0
21.10.2020 07:00:00 9,6 7,0 26 14 59 32 E 11 0 -
21.10.2020 06:00:00 9,1 6,5 19 11 48 26 E 14 0 0,0
21.10.2020 05:00:00 9,0 7,0 20 11 65 35 E 20 0 0,0
21.10.2020 04:00:00 9,3 5,3 23 13 59 32 E 20 0 0,0
21.10.2020 03:00:00 8,5 5,8 29 15 60 33 ESE 20 0 0,0
21.10.2020 02:00:00 8,7 5,6 29 15 72 39 ESE 20 0 0,0
21.10.2020 01:00:00 8,3 6,2 25 14 56 30 ESE 20 0 -
21.10.2020 00:00:00 8,2 6,5 28 15 56 30 ESE 19 0 0,0
20.10.2020 23:00:00 7,7 6,7 24 13 57 31 ESE 12 0 0,0
20.10.2020 22:00:00 7,2 6,4 14 8 38 20 ESE 16 0 0,0

tt = temperature
td = dewpoint
ff = wind speed
fx = gusts
dd = wind direction
vv = visibility
sd = sunshine duration
rr = precipitation

Next stations